sensor_id;sensor_type;location;lat;lon;timestamp;P1;durP1;ratioP1;P2;durP2;ratioP2
2720;SDS011;1368;49.484;11.112;2023-08-08T00:01:43;8.87;;;7.30;;
2720;SDS011;1368;49.484;11.112;2023-08-08T00:04:09;9.63;;;7.17;;
2720;SDS011;1368;49.484;11.112;2023-08-08T00:06:35;7.53;;;6.73;;
2720;SDS011;1368;49.484;11.112;2023-08-08T00:09:01;9.07;;;5.87;;
2720;SDS011;1368;49.484;11.112;2023-08-08T00:11:28;8.47;;;6.87;;
2720;SDS011;1368;49.484;11.112;2023-08-08T00:13:54;9.30;;;7.20;;
2720;SDS011;1368;49.484;11.112;2023-08-08T00:16:20;11.43;;;7.03;;
2720;SDS011;1368;49.484;11.112;2023-08-08T00:18:46;10.73;;;7.30;;
2720;SDS011;1368;49.484;11.112;2023-08-08T00:21:12;11.43;;;7.13;;
2720;SDS011;1368;49.484;11.112;2023-08-08T00:23:37;10.23;;;6.30;;
2720;SDS011;1368;49.484;11.112;2023-08-08T00:26:03;9.60;;;7.17;;
2720;SDS011;1368;49.484;11.112;2023-08-08T00:28:28;11.17;;;7.20;;
2720;SDS011;1368;49.484;11.112;2023-08-08T00:30:54;6.87;;;6.00;;
2720;SDS011;1368;49.484;11.112;2023-08-08T00:33:20;7.40;;;5.93;;
2720;SDS011;1368;49.484;11.112;2023-08-08T00:35:46;7.73;;;5.43;;
2720;SDS011;1368;49.484;11.112;2023-08-08T00:38:11;10.57;;;7.07;;
2720;SDS011;1368;49.484;11.112;2023-08-08T00:40:37;8.37;;;6.47;;
2720;SDS011;1368;49.484;11.112;2023-08-08T00:43:02;10.70;;;6.40;;
2720;SDS011;1368;49.484;11.112;2023-08-08T00:45:28;11.03;;;6.90;;
2720;SDS011;1368;49.484;11.112;2023-08-08T00:47:54;9.07;;;6.27;;
2720;SDS011;1368;49.484;11.112;2023-08-08T00:50:20;9.93;;;6.77;;
2720;SDS011;1368;49.484;11.112;2023-08-08T00:52:46;8.60;;;6.50;;
2720;SDS011;1368;49.484;11.112;2023-08-08T00:55:12;12.70;;;7.30;;
2720;SDS011;1368;49.484;11.112;2023-08-08T00:57:39;8.73;;;6.47;;
2720;SDS011;1368;49.484;11.112;2023-08-08T01:00:06;8.23;;;6.67;;
2720;SDS011;1368;49.484;11.112;2023-08-08T01:02:32;12.13;;;6.93;;
2720;SDS011;1368;49.484;11.112;2023-08-08T01:04:57;11.47;;;6.50;;
2720;SDS011;1368;49.484;11.112;2023-08-08T01:09:57;10.30;;;6.40;;
2720;SDS011;1368;49.484;11.112;2023-08-08T01:12:32;8.30;;;5.47;;
2720;SDS011;1368;49.484;11.112;2023-08-08T01:14:58;6.30;;;5.50;;
2720;SDS011;1368;49.484;11.112;2023-08-08T01:17:24;10.57;;;6.60;;
2720;SDS011;1368;49.484;11.112;2023-08-08T01:19:50;9.27;;;6.77;;
2720;SDS011;1368;49.484;11.112;2023-08-08T01:22:27;9.13;;;7.03;;
2720;SDS011;1368;49.484;11.112;2023-08-08T01:25:00;11.20;;;6.90;;
2720;SDS011;1368;49.484;11.112;2023-08-08T01:27:26;7.57;;;5.50;;
2720;SDS011;1368;49.484;11.112;2023-08-08T01:29:53;7.97;;;6.67;;
2720;SDS011;1368;49.484;11.112;2023-08-08T01:32:18;14.60;;;5.70;;
2720;SDS011;1368;49.484;11.112;2023-08-08T01:34:44;8.67;;;6.40;;
2720;SDS011;1368;49.484;11.112;2023-08-08T01:37:13;9.60;;;6.53;;
2720;SDS011;1368;49.484;11.112;2023-08-08T01:39:56;8.10;;;6.77;;
2720;SDS011;1368;49.484;11.112;2023-08-08T01:42:24;7.87;;;6.53;;
2720;SDS011;1368;49.484;11.112;2023-08-08T01:44:50;7.73;;;6.70;;
2720;SDS011;1368;49.484;11.112;2023-08-08T01:47:17;9.13;;;5.77;;
2720;SDS011;1368;49.484;11.112;2023-08-08T01:49:43;7.17;;;6.00;;
2720;SDS011;1368;49.484;11.112;2023-08-08T01:52:08;8.33;;;6.57;;
2720;SDS011;1368;49.484;11.112;2023-08-08T01:54:34;8.00;;;5.77;;
2720;SDS011;1368;49.484;11.112;2023-08-08T01:56:59;11.27;;;7.17;;
2720;SDS011;1368;49.484;11.112;2023-08-08T01:59:25;20.67;;;6.47;;
2720;SDS011;1368;49.484;11.112;2023-08-08T02:01:51;8.93;;;7.47;;
2720;SDS011;1368;49.484;11.112;2023-08-08T02:04:16;13.33;;;6.90;;
2720;SDS011;1368;49.484;11.112;2023-08-08T02:06:42;9.23;;;6.33;;
2720;SDS011;1368;49.484;11.112;2023-08-08T02:09:07;9.27;;;7.23;;
2720;SDS011;1368;49.484;11.112;2023-08-08T02:11:33;9.23;;;7.00;;
2720;SDS011;1368;49.484;11.112;2023-08-08T02:13:58;7.80;;;6.30;;
2720;SDS011;1368;49.484;11.112;2023-08-08T02:16:24;12.33;;;7.03;;
2720;SDS011;1368;49.484;11.112;2023-08-08T02:18:49;8.57;;;6.30;;
2720;SDS011;1368;49.484;11.112;2023-08-08T02:21:15;7.40;;;5.80;;
2720;SDS011;1368;49.484;11.112;2023-08-08T02:23:41;8.90;;;5.60;;
2720;SDS011;1368;49.484;11.112;2023-08-08T02:26:06;9.37;;;6.97;;
2720;SDS011;1368;49.484;11.112;2023-08-08T02:28:32;10.37;;;6.30;;
2720;SDS011;1368;49.484;11.112;2023-08-08T02:30:58;9.70;;;6.43;;
2720;SDS011;1368;49.484;11.112;2023-08-08T02:33:24;7.90;;;5.90;;
2720;SDS011;1368;49.484;11.112;2023-08-08T02:35:50;9.97;;;5.60;;
2720;SDS011;1368;49.484;11.112;2023-08-08T02:38:15;7.60;;;6.30;;
2720;SDS011;1368;49.484;11.112;2023-08-08T02:40:41;7.87;;;6.73;;
2720;SDS011;1368;49.484;11.112;2023-08-08T02:43:06;9.80;;;6.83;;
2720;SDS011;1368;49.484;11.112;2023-08-08T02:45:34;7.10;;;6.20;;
2720;SDS011;1368;49.484;11.112;2023-08-08T02:47:59;7.50;;;6.17;;
2720;SDS011;1368;49.484;11.112;2023-08-08T02:50:25;11.03;;;7.50;;
2720;SDS011;1368;49.484;11.112;2023-08-08T02:52:50;12.23;;;7.00;;
2720;SDS011;1368;49.484;11.112;2023-08-08T02:55:16;10.53;;;7.37;;
2720;SDS011;1368;49.484;11.112;2023-08-08T02:57:42;10.20;;;6.90;;
2720;SDS011;1368;49.484;11.112;2023-08-08T03:00:08;8.40;;;6.00;;
2720;SDS011;1368;49.484;11.112;2023-08-08T03:02:35;7.70;;;5.90;;
2720;SDS011;1368;49.484;11.112;2023-08-08T03:05:01;15.87;;;5.97;;
2720;SDS011;1368;49.484;11.112;2023-08-08T03:07:26;11.40;;;5.97;;
2720;SDS011;1368;49.484;11.112;2023-08-08T03:09:52;8.30;;;5.30;;
2720;SDS011;1368;49.484;11.112;2023-08-08T03:12:17;7.17;;;5.27;;
2720;SDS011;1368;49.484;11.112;2023-08-08T03:14:43;7.97;;;5.40;;
2720;SDS011;1368;49.484;11.112;2023-08-08T03:17:08;4.87;;;4.37;;
2720;SDS011;1368;49.484;11.112;2023-08-08T03:19:34;5.77;;;4.70;;
2720;SDS011;1368;49.484;11.112;2023-08-08T03:22:00;6.00;;;4.40;;
2720;SDS011;1368;49.484;11.112;2023-08-08T03:24:25;6.63;;;4.60;;
2720;SDS011;1368;49.484;11.112;2023-08-08T03:26:51;4.50;;;4.10;;
2720;SDS011;1368;49.484;11.112;2023-08-08T03:29:16;6.37;;;4.57;;
2720;SDS011;1368;49.484;11.112;2023-08-08T03:31:42;5.87;;;4.47;;
2720;SDS011;1368;49.484;11.112;2023-08-08T03:34:07;5.83;;;4.40;;
2720;SDS011;1368;49.484;11.112;2023-08-08T03:36:33;5.73;;;3.73;;
2720;SDS011;1368;49.484;11.112;2023-08-08T03:38:58;5.77;;;3.47;;
2720;SDS011;1368;49.484;11.112;2023-08-08T03:41:24;7.27;;;4.50;;
2720;SDS011;1368;49.484;11.112;2023-08-08T03:43:49;7.10;;;3.63;;
2720;SDS011;1368;49.484;11.112;2023-08-08T03:46:15;5.50;;;4.00;;
2720;SDS011;1368;49.484;11.112;2023-08-08T03:48:40;5.63;;;3.73;;
2720;SDS011;1368;49.484;11.112;2023-08-08T03:51:06;4.90;;;3.87;;
2720;SDS011;1368;49.484;11.112;2023-08-08T03:53:32;5.63;;;4.70;;
2720;SDS011;1368;49.484;11.112;2023-08-08T03:55:57;6.13;;;4.57;;
2720;SDS011;1368;49.484;11.112;2023-08-08T03:58:23;6.23;;;4.37;;
2720;SDS011;1368;49.484;11.112;2023-08-08T04:00:49;6.13;;;3.70;;
2720;SDS011;1368;49.484;11.112;2023-08-08T04:03:15;6.00;;;4.33;;
2720;SDS011;1368;49.484;11.112;2023-08-08T04:05:44;4.93;;;4.20;;
2720;SDS011;1368;49.484;11.112;2023-08-08T04:08:11;5.33;;;4.10;;
2720;SDS011;1368;49.484;11.112;2023-08-08T04:10:38;8.13;;;4.30;;
2720;SDS011;1368;49.484;11.112;2023-08-08T04:13:03;8.90;;;4.20;;
2720;SDS011;1368;49.484;11.112;2023-08-08T04:15:29;5.93;;;4.00;;
2720;SDS011;1368;49.484;11.112;2023-08-08T04:17:54;5.83;;;4.37;;
2720;SDS011;1368;49.484;11.112;2023-08-08T04:20:20;5.30;;;3.90;;
2720;SDS011;1368;49.484;11.112;2023-08-08T04:22:45;4.60;;;3.97;;
2720;SDS011;1368;49.484;11.112;2023-08-08T04:25:11;4.23;;;3.60;;
2720;SDS011;1368;49.484;11.112;2023-08-08T04:27:37;6.40;;;3.97;;
2720;SDS011;1368;49.484;11.112;2023-08-08T04:30:02;11.60;;;5.50;;
2720;SDS011;1368;49.484;11.112;2023-08-08T04:32:29;6.60;;;5.23;;
2720;SDS011;1368;49.484;11.112;2023-08-08T04:34:55;8.37;;;5.83;;
2720;SDS011;1368;49.484;11.112;2023-08-08T04:37:21;7.03;;;4.70;;
2720;SDS011;1368;49.484;11.112;2023-08-08T04:39:46;6.30;;;4.40;;
2720;SDS011;1368;49.484;11.112;2023-08-08T04:42:12;5.10;;;4.30;;
2720;SDS011;1368;49.484;11.112;2023-08-08T04:44:37;8.17;;;5.00;;
2720;SDS011;1368;49.484;11.112;2023-08-08T04:47:03;7.93;;;5.63;;
2720;SDS011;1368;49.484;11.112;2023-08-08T04:49:29;7.83;;;4.40;;
2720;SDS011;1368;49.484;11.112;2023-08-08T04:51:54;6.97;;;5.37;;
2720;SDS011;1368;49.484;11.112;2023-08-08T04:54:20;6.00;;;4.90;;
2720;SDS011;1368;49.484;11.112;2023-08-08T04:56:45;5.93;;;4.50;;
2720;SDS011;1368;49.484;11.112;2023-08-08T04:59:11;6.80;;;4.63;;
2720;SDS011;1368;49.484;11.112;2023-08-08T05:01:36;5.60;;;4.13;;
2720;SDS011;1368;49.484;11.112;2023-08-08T05:04:02;6.57;;;4.63;;
2720;SDS011;1368;49.484;11.112;2023-08-08T05:06:28;5.13;;;4.00;;
2720;SDS011;1368;49.484;11.112;2023-08-08T05:08:53;9.13;;;4.10;;
2720;SDS011;1368;49.484;11.112;2023-08-08T05:11:19;10.27;;;3.83;;
2720;SDS011;1368;49.484;11.112;2023-08-08T05:13:44;6.10;;;3.90;;
2720;SDS011;1368;49.484;11.112;2023-08-08T05:16:10;4.80;;;3.33;;
2720;SDS011;1368;49.484;11.112;2023-08-08T05:18:35;8.87;;;3.60;;
2720;SDS011;1368;49.484;11.112;2023-08-08T05:21:01;6.20;;;3.60;;
2720;SDS011;1368;49.484;11.112;2023-08-08T05:23:27;7.43;;;3.37;;
2720;SDS011;1368;49.484;11.112;2023-08-08T05:25:52;4.87;;;3.27;;
2720;SDS011;1368;49.484;11.112;2023-08-08T05:28:18;3.90;;;2.93;;
2720;SDS011;1368;49.484;11.112;2023-08-08T05:30:43;4.90;;;2.43;;
2720;SDS011;1368;49.484;11.112;2023-08-08T05:33:09;7.20;;;3.00;;
2720;SDS011;1368;49.484;11.112;2023-08-08T05:35:35;6.63;;;3.83;;
2720;SDS011;1368;49.484;11.112;2023-08-08T05:38:00;5.40;;;2.90;;
2720;SDS011;1368;49.484;11.112;2023-08-08T05:40:26;4.90;;;3.17;;
2720;SDS011;1368;49.484;11.112;2023-08-08T05:42:51;5.10;;;2.80;;
2720;SDS011;1368;49.484;11.112;2023-08-08T05:45:17;6.27;;;3.37;;
2720;SDS011;1368;49.484;11.112;2023-08-08T05:47:42;5.27;;;3.33;;
2720;SDS011;1368;49.484;11.112;2023-08-08T05:50:08;5.00;;;2.60;;
2720;SDS011;1368;49.484;11.112;2023-08-08T05:52:34;4.90;;;2.97;;
2720;SDS011;1368;49.484;11.112;2023-08-08T05:54:59;4.90;;;3.20;;
2720;SDS011;1368;49.484;11.112;2023-08-08T05:57:25;4.43;;;2.73;;
2720;SDS011;1368;49.484;11.112;2023-08-08T05:59:51;6.23;;;2.50;;
2720;SDS011;1368;49.484;11.112;2023-08-08T06:02:17;4.47;;;2.17;;
2720;SDS011;1368;49.484;11.112;2023-08-08T06:04:43;3.90;;;2.47;;
2720;SDS011;1368;49.484;11.112;2023-08-08T06:07:08;6.50;;;3.13;;
2720;SDS011;1368;49.484;11.112;2023-08-08T06:09:34;5.37;;;3.07;;
2720;SDS011;1368;49.484;11.112;2023-08-08T06:12:01;3.23;;;1.90;;
2720;SDS011;1368;49.484;11.112;2023-08-08T06:14:27;5.90;;;3.10;;
2720;SDS011;1368;49.484;11.112;2023-08-08T06:16:53;5.10;;;2.57;;
2720;SDS011;1368;49.484;11.112;2023-08-08T06:19:19;5.43;;;2.27;;
2720;SDS011;1368;49.484;11.112;2023-08-08T06:21:45;4.03;;;2.47;;
2720;SDS011;1368;49.484;11.112;2023-08-08T06:24:11;7.43;;;2.60;;
2720;SDS011;1368;49.484;11.112;2023-08-08T06:26:36;3.60;;;1.93;;
2720;SDS011;1368;49.484;11.112;2023-08-08T06:29:02;3.37;;;2.00;;
2720;SDS011;1368;49.484;11.112;2023-08-08T06:31:28;8.27;;;3.20;;
2720;SDS011;1368;49.484;11.112;2023-08-08T06:33:54;4.97;;;2.80;;
2720;SDS011;1368;49.484;11.112;2023-08-08T06:36:19;3.70;;;2.47;;
2720;SDS011;1368;49.484;11.112;2023-08-08T06:38:45;4.17;;;2.57;;
2720;SDS011;1368;49.484;11.112;2023-08-08T06:41:10;8.30;;;3.20;;
2720;SDS011;1368;49.484;11.112;2023-08-08T06:43:36;3.80;;;3.10;;
2720;SDS011;1368;49.484;11.112;2023-08-08T06:46:02;4.17;;;2.57;;
2720;SDS011;1368;49.484;11.112;2023-08-08T06:48:27;6.57;;;2.40;;
2720;SDS011;1368;49.484;11.112;2023-08-08T06:50:53;6.40;;;2.30;;
2720;SDS011;1368;49.484;11.112;2023-08-08T06:53:19;5.50;;;2.57;;
2720;SDS011;1368;49.484;11.112;2023-08-08T06:55:44;5.00;;;2.33;;
2720;SDS011;1368;49.484;11.112;2023-08-08T06:58:10;6.67;;;2.40;;
2720;SDS011;1368;49.484;11.112;2023-08-08T07:00:35;2.90;;;2.13;;
2720;SDS011;1368;49.484;11.112;2023-08-08T07:03:01;4.33;;;2.30;;
2720;SDS011;1368;49.484;11.112;2023-08-08T07:05:27;3.60;;;2.07;;
2720;SDS011;1368;49.484;11.112;2023-08-08T07:07:52;4.63;;;1.80;;
2720;SDS011;1368;49.484;11.112;2023-08-08T07:10:18;7.03;;;2.77;;
2720;SDS011;1368;49.484;11.112;2023-08-08T07:12:44;4.93;;;3.00;;
2720;SDS011;1368;49.484;11.112;2023-08-08T07:15:10;6.10;;;2.80;;
2720;SDS011;1368;49.484;11.112;2023-08-08T07:17:36;5.63;;;2.80;;
2720;SDS011;1368;49.484;11.112;2023-08-08T07:20:03;5.73;;;2.70;;
2720;SDS011;1368;49.484;11.112;2023-08-08T07:22:30;4.93;;;2.10;;
2720;SDS011;1368;49.484;11.112;2023-08-08T07:24:57;5.30;;;2.10;;
2720;SDS011;1368;49.484;11.112;2023-08-08T07:27:23;4.07;;;2.57;;
2720;SDS011;1368;49.484;11.112;2023-08-08T07:29:48;4.70;;;2.53;;
2720;SDS011;1368;49.484;11.112;2023-08-08T07:32:14;3.93;;;2.00;;
2720;SDS011;1368;49.484;11.112;2023-08-08T07:34:39;5.63;;;2.33;;
2720;SDS011;1368;49.484;11.112;2023-08-08T07:37:05;3.97;;;1.90;;
2720;SDS011;1368;49.484;11.112;2023-08-08T07:39:30;5.27;;;1.77;;
2720;SDS011;1368;49.484;11.112;2023-08-08T07:41:56;6.23;;;2.70;;
2720;SDS011;1368;49.484;11.112;2023-08-08T07:44:22;4.37;;;2.70;;
2720;SDS011;1368;49.484;11.112;2023-08-08T07:46:48;8.40;;;2.40;;
2720;SDS011;1368;49.484;11.112;2023-08-08T07:49:14;5.90;;;2.43;;
2720;SDS011;1368;49.484;11.112;2023-08-08T07:51:39;3.57;;;2.03;;
2720;SDS011;1368;49.484;11.112;2023-08-08T07:54:05;6.63;;;2.43;;
2720;SDS011;1368;49.484;11.112;2023-08-08T07:56:33;4.10;;;2.30;;
2720;SDS011;1368;49.484;11.112;2023-08-08T07:59:02;4.77;;;2.87;;
2720;SDS011;1368;49.484;11.112;2023-08-08T08:01:28;5.13;;;2.30;;
2720;SDS011;1368;49.484;11.112;2023-08-08T08:03:54;3.70;;;1.80;;
2720;SDS011;1368;49.484;11.112;2023-08-08T08:06:20;3.10;;;1.90;;
2720;SDS011;1368;49.484;11.112;2023-08-08T08:08:45;4.27;;;2.10;;
2720;SDS011;1368;49.484;11.112;2023-08-08T08:11:11;3.60;;;2.20;;
2720;SDS011;1368;49.484;11.112;2023-08-08T08:13:38;4.90;;;1.77;;
2720;SDS011;1368;49.484;11.112;2023-08-08T08:16:03;3.80;;;1.80;;
2720;SDS011;1368;49.484;11.112;2023-08-08T08:18:29;3.53;;;2.00;;
2720;SDS011;1368;49.484;11.112;2023-08-08T08:20:55;3.23;;;1.67;;
2720;SDS011;1368;49.484;11.112;2023-08-08T08:23:20;4.20;;;1.83;;
2720;SDS011;1368;49.484;11.112;2023-08-08T08:25:46;5.30;;;2.00;;
2720;SDS011;1368;49.484;11.112;2023-08-08T08:28:13;4.17;;;1.90;;
2720;SDS011;1368;49.484;11.112;2023-08-08T08:30:40;7.10;;;2.20;;
2720;SDS011;1368;49.484;11.112;2023-08-08T08:33:06;4.70;;;2.10;;
2720;SDS011;1368;49.484;11.112;2023-08-08T08:35:33;3.83;;;1.90;;
2720;SDS011;1368;49.484;11.112;2023-08-08T08:37:59;4.13;;;1.83;;
2720;SDS011;1368;49.484;11.112;2023-08-08T08:40:25;3.80;;;1.73;;
2720;SDS011;1368;49.484;11.112;2023-08-08T08:42:51;3.00;;;1.47;;
2720;SDS011;1368;49.484;11.112;2023-08-08T08:45:17;3.10;;;1.50;;
2720;SDS011;1368;49.484;11.112;2023-08-08T08:47:46;5.10;;;2.00;;
2720;SDS011;1368;49.484;11.112;2023-08-08T08:50:14;2.83;;;1.20;;
2720;SDS011;1368;49.484;11.112;2023-08-08T08:52:40;2.83;;;1.40;;
2720;SDS011;1368;49.484;11.112;2023-08-08T08:55:07;3.37;;;1.50;;
2720;SDS011;1368;49.484;11.112;2023-08-08T08:57:33;2.73;;;1.63;;
2720;SDS011;1368;49.484;11.112;2023-08-08T09:00:00;5.93;;;1.57;;
2720;SDS011;1368;49.484;11.112;2023-08-08T09:02:26;3.73;;;1.70;;
2720;SDS011;1368;49.484;11.112;2023-08-08T09:04:51;3.50;;;1.80;;
2720;SDS011;1368;49.484;11.112;2023-08-08T09:07:18;4.67;;;1.83;;
2720;SDS011;1368;49.484;11.112;2023-08-08T09:09:47;2.83;;;1.30;;
2720;SDS011;1368;49.484;11.112;2023-08-08T09:12:13;5.63;;;2.20;;
2720;SDS011;1368;49.484;11.112;2023-08-08T09:14:40;4.17;;;1.80;;
2720;SDS011;1368;49.484;11.112;2023-08-08T09:17:12;4.10;;;1.63;;
2720;SDS011;1368;49.484;11.112;2023-08-08T09:19:42;5.23;;;1.97;;
2720;SDS011;1368;49.484;11.112;2023-08-08T09:22:12;14.40;;;3.93;;
2720;SDS011;1368;49.484;11.112;2023-08-08T09:24:39;7.20;;;2.10;;
2720;SDS011;1368;49.484;11.112;2023-08-08T09:27:06;5.03;;;1.93;;
2720;SDS011;1368;49.484;11.112;2023-08-08T09:29:32;4.73;;;1.80;;
2720;SDS011;1368;49.484;11.112;2023-08-08T09:31:58;3.03;;;1.37;;
2720;SDS011;1368;49.484;11.112;2023-08-08T09:34:24;4.10;;;1.43;;
2720;SDS011;1368;49.484;11.112;2023-08-08T09:36:51;4.27;;;1.80;;
2720;SDS011;1368;49.484;11.112;2023-08-08T09:39:18;3.90;;;1.80;;
2720;SDS011;1368;49.484;11.112;2023-08-08T09:41:45;3.07;;;1.63;;
2720;SDS011;1368;49.484;11.112;2023-08-08T09:44:11;4.23;;;1.43;;
2720;SDS011;1368;49.484;11.112;2023-08-08T09:46:37;4.50;;;1.73;;
2720;SDS011;1368;49.484;11.112;2023-08-08T09:49:03;3.00;;;1.50;;
2720;SDS011;1368;49.484;11.112;2023-08-08T09:51:29;8.03;;;1.50;;
2720;SDS011;1368;49.484;11.112;2023-08-08T09:53:55;4.37;;;1.60;;
2720;SDS011;1368;49.484;11.112;2023-08-08T09:56:21;3.20;;;1.70;;
2720;SDS011;1368;49.484;11.112;2023-08-08T09:58:49;4.70;;;1.90;;
2720;SDS011;1368;49.484;11.112;2023-08-08T10:01:15;2.97;;;1.70;;
2720;SDS011;1368;49.484;11.112;2023-08-08T10:03:41;3.17;;;1.70;;
2720;SDS011;1368;49.484;11.112;2023-08-08T10:06:10;2.70;;;1.60;;
2720;SDS011;1368;49.484;11.112;2023-08-08T10:08:35;2.73;;;1.30;;
2720;SDS011;1368;49.484;11.112;2023-08-08T10:11:01;4.20;;;1.70;;
2720;SDS011;1368;49.484;11.112;2023-08-08T10:13:28;4.10;;;1.90;;
2720;SDS011;1368;49.484;11.112;2023-08-08T10:15:54;6.17;;;1.47;;
2720;SDS011;1368;49.484;11.112;2023-08-08T10:18:23;4.37;;;1.63;;
2720;SDS011;1368;49.484;11.112;2023-08-08T10:20:50;5.53;;;1.53;;
2720;SDS011;1368;49.484;11.112;2023-08-08T10:23:19;3.93;;;1.77;;
2720;SDS011;1368;49.484;11.112;2023-08-08T10:25:46;5.90;;;1.87;;
2720;SDS011;1368;49.484;11.112;2023-08-08T10:28:13;3.90;;;1.60;;
2720;SDS011;1368;49.484;11.112;2023-08-08T10:30:41;5.00;;;1.80;;
2720;SDS011;1368;49.484;11.112;2023-08-08T10:33:15;2.90;;;1.70;;
2720;SDS011;1368;49.484;11.112;2023-08-08T10:35:50;4.17;;;1.80;;
2720;SDS011;1368;49.484;11.112;2023-08-08T10:38:26;4.33;;;1.90;;
2720;SDS011;1368;49.484;11.112;2023-08-08T10:41:02;2.93;;;1.50;;
2720;SDS011;1368;49.484;11.112;2023-08-08T10:43:28;3.97;;;1.80;;
2720;SDS011;1368;49.484;11.112;2023-08-08T10:45:58;4.57;;;1.87;;
2720;SDS011;1368;49.484;11.112;2023-08-08T10:48:26;5.40;;;2.20;;
2720;SDS011;1368;49.484;11.112;2023-08-08T10:50:54;4.90;;;1.90;;
2720;SDS011;1368;49.484;11.112;2023-08-08T10:53:27;6.47;;;1.97;;
2720;SDS011;1368;49.484;11.112;2023-08-08T10:55:58;2.83;;;1.70;;
2720;SDS011;1368;49.484;11.112;2023-08-08T10:58:34;4.90;;;1.53;;
2720;SDS011;1368;49.484;11.112;2023-08-08T11:01:03;4.47;;;1.70;;
2720;SDS011;1368;49.484;11.112;2023-08-08T11:03:32;3.37;;;1.57;;
2720;SDS011;1368;49.484;11.112;2023-08-08T11:05:59;3.47;;;1.67;;
2720;SDS011;1368;49.484;11.112;2023-08-08T11:08:28;3.57;;;1.43;;
2720;SDS011;1368;49.484;11.112;2023-08-08T11:10:55;3.57;;;1.67;;
2720;SDS011;1368;49.484;11.112;2023-08-08T11:13:22;4.30;;;1.90;;
2720;SDS011;1368;49.484;11.112;2023-08-08T11:15:47;4.17;;;1.83;;
2720;SDS011;1368;49.484;11.112;2023-08-08T11:18:13;5.33;;;2.00;;
2720;SDS011;1368;49.484;11.112;2023-08-08T11:20:39;3.67;;;1.70;;
2720;SDS011;1368;49.484;11.112;2023-08-08T11:23:04;4.57;;;1.80;;
2720;SDS011;1368;49.484;11.112;2023-08-08T11:25:35;2.83;;;1.40;;
2720;SDS011;1368;49.484;11.112;2023-08-08T11:28:02;3.10;;;1.73;;
2720;SDS011;1368;49.484;11.112;2023-08-08T11:30:28;4.27;;;1.70;;
2720;SDS011;1368;49.484;11.112;2023-08-08T11:32:57;5.50;;;1.60;;
2720;SDS011;1368;49.484;11.112;2023-08-08T11:35:23;4.63;;;1.73;;
2720;SDS011;1368;49.484;11.112;2023-08-08T11:37:50;5.03;;;2.07;;
2720;SDS011;1368;49.484;11.112;2023-08-08T11:40:17;2.87;;;1.57;;
2720;SDS011;1368;49.484;11.112;2023-08-08T11:42:45;3.20;;;1.50;;
2720;SDS011;1368;49.484;11.112;2023-08-08T11:45:11;4.87;;;2.00;;
2720;SDS011;1368;49.484;11.112;2023-08-08T11:47:40;2.70;;;1.50;;
2720;SDS011;1368;49.484;11.112;2023-08-08T11:50:06;3.40;;;1.83;;
2720;SDS011;1368;49.484;11.112;2023-08-08T11:52:39;3.43;;;1.60;;
2720;SDS011;1368;49.484;11.112;2023-08-08T11:55:06;3.97;;;1.50;;
2720;SDS011;1368;49.484;11.112;2023-08-08T11:57:35;4.63;;;1.80;;
2720;SDS011;1368;49.484;11.112;2023-08-08T12:00:05;3.93;;;1.60;;
2720;SDS011;1368;49.484;11.112;2023-08-08T12:02:32;6.50;;;1.90;;
2720;SDS011;1368;49.484;11.112;2023-08-08T12:05:05;7.50;;;1.90;;
2720;SDS011;1368;49.484;11.112;2023-08-08T12:07:32;9.63;;;2.30;;
2720;SDS011;1368;49.484;11.112;2023-08-08T12:10:02;3.63;;;1.90;;
2720;SDS011;1368;49.484;11.112;2023-08-08T12:12:31;5.53;;;1.80;;
2720;SDS011;1368;49.484;11.112;2023-08-08T12:15:02;4.63;;;2.00;;
2720;SDS011;1368;49.484;11.112;2023-08-08T12:17:29;6.50;;;1.90;;
2720;SDS011;1368;49.484;11.112;2023-08-08T12:19:58;3.00;;;1.83;;
2720;SDS011;1368;49.484;11.112;2023-08-08T12:22:25;4.27;;;1.93;;
2720;SDS011;1368;49.484;11.112;2023-08-08T12:24:51;3.80;;;1.90;;
2720;SDS011;1368;49.484;11.112;2023-08-08T12:27:16;5.50;;;1.83;;
2720;SDS011;1368;49.484;11.112;2023-08-08T12:29:42;3.60;;;2.10;;
2720;SDS011;1368;49.484;11.112;2023-08-08T12:32:09;4.13;;;2.07;;
2720;SDS011;1368;49.484;11.112;2023-08-08T12:34:35;4.73;;;1.80;;
2720;SDS011;1368;49.484;11.112;2023-08-08T12:37:00;5.40;;;1.77;;
2720;SDS011;1368;49.484;11.112;2023-08-08T12:39:27;4.93;;;1.90;;
2720;SDS011;1368;49.484;11.112;2023-08-08T12:41:53;3.40;;;2.20;;
2720;SDS011;1368;49.484;11.112;2023-08-08T12:44:19;5.87;;;1.60;;
2720;SDS011;1368;49.484;11.112;2023-08-08T12:46:44;3.50;;;1.90;;
2720;SDS011;1368;49.484;11.112;2023-08-08T12:49:10;3.80;;;1.77;;
2720;SDS011;1368;49.484;11.112;2023-08-08T12:51:35;4.57;;;2.00;;
2720;SDS011;1368;49.484;11.112;2023-08-08T12:54:01;4.53;;;2.07;;
2720;SDS011;1368;49.484;11.112;2023-08-08T12:56:26;9.60;;;2.20;;
2720;SDS011;1368;49.484;11.112;2023-08-08T12:58:52;4.43;;;2.27;;
2720;SDS011;1368;49.484;11.112;2023-08-08T13:01:17;3.00;;;1.70;;
2720;SDS011;1368;49.484;11.112;2023-08-08T13:03:43;4.70;;;2.37;;
2720;SDS011;1368;49.484;11.112;2023-08-08T13:06:09;4.20;;;1.80;;
2720;SDS011;1368;49.484;11.112;2023-08-08T13:08:36;6.83;;;2.60;;
2720;SDS011;1368;49.484;11.112;2023-08-08T13:11:02;6.27;;;2.03;;
2720;SDS011;1368;49.484;11.112;2023-08-08T13:13:28;4.03;;;2.07;;
2720;SDS011;1368;49.484;11.112;2023-08-08T13:15:54;4.20;;;2.23;;
2720;SDS011;1368;49.484;11.112;2023-08-08T13:18:19;4.47;;;1.97;;
2720;SDS011;1368;49.484;11.112;2023-08-08T13:20:45;5.47;;;1.87;;
2720;SDS011;1368;49.484;11.112;2023-08-08T13:23:11;5.73;;;2.20;;
2720;SDS011;1368;49.484;11.112;2023-08-08T13:25:36;5.50;;;1.97;;
2720;SDS011;1368;49.484;11.112;2023-08-08T13:28:02;4.13;;;2.23;;
2720;SDS011;1368;49.484;11.112;2023-08-08T13:30:28;7.00;;;2.93;;
2720;SDS011;1368;49.484;11.112;2023-08-08T13:32:54;4.80;;;2.33;;
2720;SDS011;1368;49.484;11.112;2023-08-08T13:35:20;4.53;;;2.27;;
2720;SDS011;1368;49.484;11.112;2023-08-08T13:37:45;4.63;;;2.17;;
2720;SDS011;1368;49.484;11.112;2023-08-08T13:40:15;3.77;;;2.10;;
2720;SDS011;1368;49.484;11.112;2023-08-08T13:42:41;5.00;;;2.00;;
2720;SDS011;1368;49.484;11.112;2023-08-08T13:45:09;3.53;;;1.70;;
2720;SDS011;1368;49.484;11.112;2023-08-08T13:47:35;3.30;;;1.60;;
2720;SDS011;1368;49.484;11.112;2023-08-08T13:50:00;4.67;;;2.50;;
2720;SDS011;1368;49.484;11.112;2023-08-08T13:52:26;4.10;;;2.30;;
2720;SDS011;1368;49.484;11.112;2023-08-08T13:54:52;5.07;;;2.13;;
2720;SDS011;1368;49.484;11.112;2023-08-08T13:57:19;3.93;;;2.20;;
2720;SDS011;1368;49.484;11.112;2023-08-08T13:59:44;4.07;;;2.20;;
2720;SDS011;1368;49.484;11.112;2023-08-08T14:02:10;4.60;;;2.17;;
2720;SDS011;1368;49.484;11.112;2023-08-08T14:04:35;6.03;;;2.67;;
2720;SDS011;1368;49.484;11.112;2023-08-08T14:07:01;3.90;;;1.87;;
2720;SDS011;1368;49.484;11.112;2023-08-08T14:09:26;3.83;;;2.07;;
2720;SDS011;1368;49.484;11.112;2023-08-08T14:11:52;5.20;;;2.07;;
2720;SDS011;1368;49.484;11.112;2023-08-08T14:14:18;3.37;;;2.13;;
2720;SDS011;1368;49.484;11.112;2023-08-08T14:16:43;4.40;;;2.10;;
2720;SDS011;1368;49.484;11.112;2023-08-08T14:19:09;5.33;;;2.40;;
2720;SDS011;1368;49.484;11.112;2023-08-08T14:21:35;4.80;;;2.30;;
2720;SDS011;1368;49.484;11.112;2023-08-08T14:24:00;3.80;;;2.00;;
2720;SDS011;1368;49.484;11.112;2023-08-08T14:26:26;4.77;;;1.80;;
2720;SDS011;1368;49.484;11.112;2023-08-08T14:28:52;3.63;;;1.93;;
2720;SDS011;1368;49.484;11.112;2023-08-08T14:31:18;4.73;;;2.60;;
2720;SDS011;1368;49.484;11.112;2023-08-08T14:33:43;4.63;;;2.27;;
2720;SDS011;1368;49.484;11.112;2023-08-08T14:36:09;5.40;;;2.30;;
2720;SDS011;1368;49.484;11.112;2023-08-08T14:38:34;3.50;;;1.73;;
2720;SDS011;1368;49.484;11.112;2023-08-08T14:41:01;4.00;;;1.80;;
2720;SDS011;1368;49.484;11.112;2023-08-08T14:43:27;4.80;;;2.07;;
2720;SDS011;1368;49.484;11.112;2023-08-08T14:45:52;3.73;;;1.80;;
2720;SDS011;1368;49.484;11.112;2023-08-08T14:48:18;4.43;;;2.07;;
2720;SDS011;1368;49.484;11.112;2023-08-08T14:50:43;4.53;;;2.30;;
2720;SDS011;1368;49.484;11.112;2023-08-08T14:53:09;4.37;;;1.87;;
2720;SDS011;1368;49.484;11.112;2023-08-08T14:55:35;5.47;;;2.33;;
2720;SDS011;1368;49.484;11.112;2023-08-08T14:58:00;4.53;;;2.20;;